createdAt,value
2023-10-26T00:01:30.192Z,13.59
2023-10-26T00:03:58.873Z,13.92
2023-10-26T00:06:27.492Z,13.71
2023-10-26T00:08:55.931Z,13.66
2023-10-26T00:11:24.429Z,13.90
2023-10-26T00:13:52.852Z,13.97
2023-10-26T00:16:21.317Z,14.32
2023-10-26T00:18:49.867Z,13.62
2023-10-26T00:21:18.521Z,13.92
2023-10-26T00:23:47.138Z,13.48
2023-10-26T00:26:15.610Z,13.69
2023-10-26T00:28:44.126Z,13.71
2023-10-26T00:31:12.584Z,13.89
2023-10-26T00:33:41.081Z,13.44
2023-10-26T00:36:09.574Z,13.63
2023-10-26T00:38:38.063Z,14.01
2023-10-26T00:41:06.541Z,14.10
2023-10-26T00:43:35.035Z,14.00
2023-10-26T00:46:04.631Z,13.71
2023-10-26T00:48:33.120Z,13.46
2023-10-26T00:51:01.589Z,13.74
2023-10-26T00:53:30.106Z,13.78
2023-10-26T00:55:58.654Z,13.45
2023-10-26T00:58:28.234Z,13.74
2023-10-26T01:00:57.165Z,13.49
2023-10-26T01:03:30.782Z,13.39
2023-10-26T01:05:59.986Z,13.15
2023-10-26T01:08:28.577Z,13.21
2023-10-26T01:10:58.587Z,13.25
2023-10-26T01:13:27.338Z,13.73
2023-10-26T01:15:55.805Z,13.80
2023-10-26T01:18:24.638Z,14.18
2023-10-26T01:20:55.248Z,13.96
2023-10-26T01:23:23.806Z,14.04
2023-10-26T01:25:55.664Z,14.02
2023-10-26T01:28:24.657Z,14.31
2023-10-26T01:30:53.822Z,14.25
2023-10-26T01:33:22.549Z,14.48
2023-10-26T01:35:51.260Z,14.34
2023-10-26T01:38:19.746Z,14.57
2023-10-26T01:40:50.050Z,14.44
2023-10-26T01:43:18.850Z,14.61
2023-10-26T01:45:47.309Z,14.77
2023-10-26T01:48:15.915Z,14.73
2023-10-26T01:50:44.550Z,14.75
2023-10-26T01:53:13.018Z,14.79
2023-10-26T01:55:42.279Z,14.87
2023-10-26T01:58:10.733Z,14.99
2023-10-26T02:00:39.188Z,15.12
2023-10-26T02:03:07.758Z,15.06
2023-10-26T02:05:36.371Z,14.80
2023-10-26T02:08:05.068Z,14.70
2023-10-26T02:10:33.664Z,14.74
2023-10-26T02:13:02.111Z,14.68
2023-10-26T02:15:30.600Z,14.65
2023-10-26T02:17:59.114Z,14.77
2023-10-26T02:20:27.613Z,14.89
2023-10-26T02:22:56.047Z,14.87
2023-10-26T02:25:24.552Z,14.89
2023-10-26T02:27:53.239Z,14.98
2023-10-26T02:30:21.675Z,14.84
2023-10-26T02:32:50.427Z,14.91
2023-10-26T02:35:21.860Z,14.85
2023-10-26T02:37:50.317Z,14.87
2023-10-26T02:40:18.957Z,14.69
2023-10-26T02:42:47.422Z,14.53
2023-10-26T02:45:15.917Z,14.57
2023-10-26T02:47:44.523Z,14.72
2023-10-26T02:50:13.150Z,14.60
2023-10-26T02:52:41.944Z,14.61
2023-10-26T02:55:10.546Z,14.46
2023-10-26T02:57:38.951Z,14.37
2023-10-26T03:00:08.121Z,14.37
2023-10-26T03:02:36.770Z,14.47
2023-10-26T03:05:05.658Z,14.61
2023-10-26T03:07:34.555Z,14.71
2023-10-26T03:10:03.690Z,14.74
2023-10-26T03:12:32.262Z,14.86
2023-10-26T03:15:01.348Z,14.90
2023-10-26T03:17:29.991Z,14.84
2023-10-26T03:19:58.554Z,14.78
2023-10-26T03:22:27.064Z,14.69
2023-10-26T03:24:55.573Z,14.72
2023-10-26T03:27:24.033Z,14.76
2023-10-26T03:29:52.724Z,14.73
2023-10-26T03:32:21.301Z,14.77
2023-10-26T03:34:50.111Z,14.77
2023-10-26T03:37:18.903Z,14.76
2023-10-26T03:39:47.502Z,14.72
2023-10-26T03:42:15.966Z,14.68
2023-10-26T03:44:44.658Z,14.59
2023-10-26T03:47:13.916Z,14.39
2023-10-26T03:49:42.744Z,14.06
2023-10-26T03:52:11.439Z,13.91
2023-10-26T03:54:40.264Z,14.04
2023-10-26T03:57:08.872Z,14.15
2023-10-26T03:59:37.292Z,14.22
2023-10-26T04:02:06.112Z,14.27
2023-10-26T04:04:34.741Z,14.18
2023-10-26T04:07:03.342Z,14.23
2023-10-26T04:09:31.917Z,14.23
2023-10-26T04:12:00.484Z,14.32
2023-10-26T04:14:29.091Z,14.09
2023-10-26T04:16:57.696Z,14.08
2023-10-26T04:19:26.350Z,14.12
2023-10-26T04:21:54.744Z,14.24
2023-10-26T04:24:23.328Z,14.18
2023-10-26T04:26:51.829Z,14.02
2023-10-26T04:29:20.309Z,14.02
2023-10-26T04:31:48.846Z,14.09
2023-10-26T04:34:17.437Z,14.05
2023-10-26T04:36:45.947Z,14.08
2023-10-26T04:39:16.850Z,13.98
2023-10-26T04:41:45.514Z,13.96
2023-10-26T04:44:14.570Z,14.00
2023-10-26T04:46:43.037Z,14.08
2023-10-26T04:49:11.531Z,14.06
2023-10-26T04:51:39.981Z,14.04
2023-10-26T04:54:08.473Z,14.13
2023-10-26T04:56:36.983Z,14.08
2023-10-26T04:59:05.478Z,14.03
2023-10-26T05:01:34.041Z,13.94
2023-10-26T05:04:02.551Z,13.65
2023-10-26T05:06:31.178Z,13.35
2023-10-26T05:09:00.854Z,13.38
2023-10-26T05:11:30.052Z,13.55
2023-10-26T05:13:58.600Z,13.62
2023-10-26T05:16:27.061Z,13.57
2023-10-26T05:18:55.665Z,13.58
2023-10-26T05:21:24.150Z,13.46
2023-10-26T05:23:52.648Z,13.49
2023-10-26T05:26:21.096Z,13.54
2023-10-26T05:28:49.535Z,13.56
2023-10-26T05:31:17.991Z,13.51
2023-10-26T05:33:47.954Z,13.55
2023-10-26T05:36:16.654Z,13.52
2023-10-26T05:38:47.270Z,13.37
2023-10-26T05:41:15.887Z,13.28
2023-10-26T05:43:44.374Z,13.40
2023-10-26T05:46:14.030Z,13.44
2023-10-26T05:48:42.596Z,13.36
2023-10-26T05:51:13.381Z,13.38
2023-10-26T05:53:41.847Z,13.16
2023-10-26T05:56:11.866Z,13.20
2023-10-26T05:58:40.280Z,13.27
2023-10-26T06:01:08.847Z,13.25
2023-10-26T06:03:37.748Z,13.07
2023-10-26T06:06:06.706Z,13.21
2023-10-26T06:08:35.291Z,13.17
2023-10-26T06:11:04.486Z,13.01
2023-10-26T06:13:33.059Z,12.92
2023-10-26T06:16:01.592Z,13.00
2023-10-26T06:18:30.226Z,12.94
2023-10-26T06:21:00.291Z,12.92
2023-10-26T06:23:29.292Z,13.05
2023-10-26T06:26:02.519Z,13.23
2023-10-26T06:28:31.242Z,13.11
2023-10-26T06:31:15.537Z,12.90
2023-10-26T06:33:44.462Z,12.92
2023-10-26T06:36:13.120Z,13.04
2023-10-26T06:38:43.185Z,13.16
2023-10-26T06:41:12.084Z,13.44
2023-10-26T06:43:40.545Z,13.41
2023-10-26T06:46:09.208Z,13.54
2023-10-26T06:48:37.766Z,13.52
2023-10-26T06:51:07.555Z,13.47
2023-10-26T06:53:36.653Z,13.34
2023-10-26T06:56:14.598Z,13.27
2023-10-26T06:58:44.415Z,13.26
2023-10-26T07:01:19.753Z,13.42
2023-10-26T07:03:51.701Z,13.32
2023-10-26T07:06:20.925Z,13.39
2023-10-26T07:08:56.248Z,13.49
2023-10-26T07:11:25.497Z,13.63
2023-10-26T07:13:54.092Z,13.72
2023-10-26T07:16:22.811Z,13.75
2023-10-26T07:18:52.167Z,13.80
2023-10-26T07:21:20.793Z,13.83
2023-10-26T07:23:49.295Z,13.94
2023-10-26T07:26:19.727Z,13.77
2023-10-26T07:28:48.535Z,13.48
2023-10-26T07:31:18.939Z,13.70
2023-10-26T07:33:47.764Z,13.59
2023-10-26T07:36:16.278Z,13.60
2023-10-26T07:38:44.931Z,13.71
2023-10-26T07:41:13.600Z,13.60
2023-10-26T07:43:42.135Z,13.40
2023-10-26T07:46:10.600Z,13.28
2023-10-26T07:48:39.087Z,13.16
2023-10-26T07:51:07.593Z,13.16
2023-10-26T07:53:36.092Z,13.48
2023-10-26T07:56:04.923Z,13.48
2023-10-26T07:58:34.480Z,13.67
2023-10-26T08:01:09.718Z,13.42
2023-10-26T08:03:38.456Z,13.45
2023-10-26T08:06:09.510Z,13.53
2023-10-26T08:08:38.162Z,13.64
2023-10-26T08:11:11.389Z,13.44
2023-10-26T08:13:40.057Z,13.43
2023-10-26T08:16:38.915Z,13.64
2023-10-26T08:18:57.452Z,13.72
2023-10-26T08:21:26.123Z,13.88
2023-10-26T08:23:54.660Z,13.76
2023-10-26T08:26:23.099Z,13.89
2023-10-26T08:28:53.394Z,13.93
2023-10-26T08:31:28.344Z,13.71
2023-10-26T08:33:56.879Z,13.71
2023-10-26T08:36:25.443Z,13.47
2023-10-26T08:38:53.927Z,12.53
2023-10-26T08:41:22.614Z,13.56
2023-10-26T08:43:51.972Z,13.72
2023-10-26T08:46:20.644Z,13.71
2023-10-26T08:48:50.656Z,13.60
2023-10-26T08:51:19.242Z,13.68
2023-10-26T08:53:48.169Z,13.89
2023-10-26T08:56:19.181Z,13.96
2023-10-26T08:58:49.444Z,13.83
2023-10-26T09:01:17.983Z,13.61
2023-10-26T09:03:46.588Z,14.00
2023-10-26T09:06:15.153Z,14.28
2023-10-26T09:08:43.944Z,14.11
2023-10-26T09:11:22.347Z,14.24
2023-10-26T09:13:51.506Z,14.12
2023-10-26T09:16:36.085Z,13.70
2023-10-26T09:19:06.115Z,13.36
2023-10-26T09:21:55.361Z,13.41
2023-10-26T09:24:26.125Z,13.56
2023-10-26T09:27:04.771Z,13.52
2023-10-26T09:29:40.602Z,13.96
2023-10-26T09:32:10.333Z,13.60
2023-10-26T09:34:44.293Z,14.22
2023-10-26T09:37:13.152Z,14.36
2023-10-26T09:39:44.664Z,14.52
2023-10-26T09:42:13.487Z,14.69
2023-10-26T09:44:42.229Z,14.69
2023-10-26T09:47:12.222Z,13.65
2023-10-26T09:49:42.410Z,14.25
2023-10-26T09:52:11.129Z,14.53
2023-10-26T09:54:41.816Z,14.61
2023-10-26T09:57:18.371Z,14.69
2023-10-26T09:59:53.057Z,14.77
2023-10-26T10:02:22.064Z,14.15
2023-10-26T10:04:50.887Z,14.35
2023-10-26T10:07:40.360Z,14.55
2023-10-26T10:10:10.414Z,14.43
2023-10-26T10:12:40.066Z,14.60
2023-10-26T10:17:44.179Z,14.41
2023-10-26T10:20:18.861Z,13.78
2023-10-26T10:22:48.669Z,12.95
2023-10-26T10:25:21.097Z,13.51
2023-10-26T10:27:49.691Z,13.63
2023-10-26T10:30:29.472Z,14.20
2023-10-26T10:32:58.437Z,14.36
2023-10-26T10:35:51.057Z,14.59
2023-10-26T10:38:21.926Z,14.54
2023-10-26T10:40:56.897Z,14.60
2023-10-26T10:43:44.329Z,14.32
2023-10-26T10:46:17.636Z,14.32
2023-10-26T10:49:06.798Z,14.46
2023-10-26T10:51:36.218Z,14.26
2023-10-26T10:56:50.851Z,14.07
2023-10-26T10:59:27.274Z,13.90
2023-10-26T11:02:13.362Z,13.58
2023-10-26T11:05:18.076Z,14.19
2023-10-26T11:07:49.175Z,14.28
2023-10-26T11:10:19.202Z,14.11
2023-10-26T11:12:51.695Z,14.52
2023-10-26T11:15:20.557Z,14.25
2023-10-26T11:17:49.413Z,14.11
2023-10-26T11:20:47.074Z,14.82
2023-10-26T11:23:17.721Z,14.93
2023-10-26T11:25:46.596Z,14.92
2023-10-26T11:28:15.352Z,14.61
2023-10-26T11:30:49.804Z,14.37
2023-10-26T11:33:32.702Z,14.54
2023-10-26T11:36:11.459Z,14.39
2023-10-26T11:38:48.332Z,14.77
2023-10-26T11:41:23.942Z,14.43
2023-10-26T11:43:52.732Z,13.64
2023-10-26T11:46:31.050Z,13.94
2023-10-26T11:49:00.387Z,14.45
2023-10-26T11:51:29.453Z,14.31
2023-10-26T11:54:11.592Z,15.17
2023-10-26T11:56:40.113Z,15.33
2023-10-26T11:59:08.664Z,15.28
2023-10-26T12:01:37.133Z,15.23
2023-10-26T12:04:12.088Z,15.30
2023-10-26T12:06:40.710Z,15.20
2023-10-26T12:09:09.758Z,14.34
2023-10-26T12:11:41.013Z,14.41
2023-10-26T12:14:09.677Z,14.65
2023-10-26T12:16:38.827Z,15.03
2023-10-26T12:19:10.188Z,15.12
2023-10-26T12:21:38.627Z,14.99
2023-10-26T12:24:07.273Z,15.11
2023-10-26T12:26:35.856Z,15.26
2023-10-26T12:29:04.709Z,15.36
2023-10-26T12:31:34.544Z,15.31
2023-10-26T12:34:03.213Z,15.35
2023-10-26T12:36:34.781Z,15.50
2023-10-26T12:39:04.358Z,15.87
2023-10-26T12:41:32.838Z,15.99
2023-10-26T12:44:01.274Z,15.89
2023-10-26T12:46:29.779Z,15.99
2023-10-26T12:48:58.331Z,15.46
2023-10-26T12:51:26.816Z,15.50
2023-10-26T12:53:57.493Z,15.05
2023-10-26T12:56:28.197Z,15.30
2023-10-26T12:58:56.716Z,15.67
2023-10-26T13:01:25.973Z,16.04
2023-10-26T13:03:56.449Z,16.04
2023-10-26T13:06:25.155Z,16.29
2023-10-26T13:08:53.553Z,15.85
2023-10-26T13:11:22.022Z,15.74
2023-10-26T13:13:50.427Z,16.02
2023-10-26T13:16:20.315Z,16.13
2023-10-26T13:18:49.865Z,16.22
2023-10-26T13:21:19.260Z,15.99
2023-10-26T13:23:48.200Z,15.94
2023-10-26T13:26:16.783Z,15.94
2023-10-26T13:28:45.280Z,16.20
2023-10-26T13:31:13.757Z,16.14
2023-10-26T13:33:42.289Z,16.14
2023-10-26T13:36:10.735Z,15.79
2023-10-26T13:38:39.286Z,15.63
2023-10-26T13:41:08.298Z,15.98
2023-10-26T13:43:36.801Z,16.12
2023-10-26T13:46:06.942Z,16.22
2023-10-26T13:48:35.562Z,16.43
2023-10-26T13:51:04.053Z,16.60
2023-10-26T13:53:32.631Z,16.44
2023-10-26T13:56:02.301Z,16.39
2023-10-26T13:58:30.748Z,15.97
2023-10-26T14:00:59.383Z,16.25
2023-10-26T14:03:27.874Z,16.47
2023-10-26T14:05:57.308Z,16.14
2023-10-26T14:08:32.626Z,16.28
2023-10-26T14:11:01.823Z,16.04
2023-10-26T14:13:31.484Z,16.20
2023-10-26T14:16:00.167Z,15.87
2023-10-26T14:18:28.833Z,16.13
2023-10-26T14:20:57.850Z,16.20
2023-10-26T14:23:26.287Z,16.45
2023-10-26T14:25:54.717Z,16.60
2023-10-26T14:28:23.185Z,16.51
2023-10-26T14:30:51.725Z,16.27
2023-10-26T14:33:20.268Z,16.29
2023-10-26T14:35:52.313Z,16.48
2023-10-26T14:38:20.867Z,16.71
2023-10-26T14:40:56.277Z,16.44
2023-10-26T14:43:25.786Z,16.39
2023-10-26T14:45:54.435Z,16.52
2023-10-26T14:48:22.973Z,16.51
2023-10-26T14:50:59.649Z,15.94
2023-10-26T14:53:28.309Z,16.05
2023-10-26T14:56:05.199Z,15.85
2023-10-26T14:58:33.795Z,16.12
2023-10-26T15:01:02.337Z,16.12
2023-10-26T15:03:30.939Z,16.18
2023-10-26T15:06:02.228Z,15.64
2023-10-26T15:08:30.787Z,15.79
2023-10-26T15:11:24.150Z,15.91
2023-10-26T15:13:49.874Z,16.11
2023-10-26T15:16:19.017Z,15.89
2023-10-26T15:18:47.567Z,15.63
2023-10-26T15:21:16.235Z,15.75
2023-10-26T15:23:44.736Z,15.90
2023-10-26T15:26:13.317Z,15.75
2023-10-26T15:28:41.784Z,15.84
2023-10-26T15:31:11.139Z,15.80
2023-10-26T15:33:40.547Z,15.74
2023-10-26T15:36:09.180Z,15.73
2023-10-26T15:38:42.101Z,15.63
2023-10-26T15:41:11.561Z,15.78
2023-10-26T15:43:40.020Z,15.70
2023-10-26T15:46:09.557Z,15.63
2023-10-26T15:49:32.658Z,15.57
2023-10-26T15:51:26.559Z,15.64
2023-10-26T15:53:55.019Z,15.65
2023-10-26T15:56:23.405Z,15.71
2023-10-26T15:58:52.730Z,15.35
2023-10-26T16:01:21.689Z,15.66
2023-10-26T16:03:50.291Z,15.70
2023-10-26T16:06:19.957Z,15.66
2023-10-26T16:08:49.682Z,15.65
2023-10-26T16:11:18.046Z,15.74
2023-10-26T16:13:47.191Z,15.84
2023-10-26T16:16:15.775Z,15.79
2023-10-26T16:18:47.598Z,15.44
2023-10-26T16:21:17.022Z,15.67
2023-10-26T16:23:45.512Z,15.61
2023-10-26T16:26:14.069Z,15.89
2023-10-26T16:28:42.551Z,15.92
2023-10-26T16:31:11.097Z,15.97
2023-10-26T16:33:39.658Z,15.90
2023-10-26T16:36:08.205Z,16.02
2023-10-26T16:38:36.742Z,16.02
2023-10-26T16:41:05.328Z,16.09
2023-10-26T16:43:33.778Z,16.25
2023-10-26T16:46:02.595Z,16.32
2023-10-26T16:48:33.250Z,16.29
2023-10-26T16:51:02.036Z,16.17
2023-10-26T16:53:32.383Z,15.97
2023-10-26T16:56:03.071Z,15.96
2023-10-26T16:58:35.370Z,15.85
2023-10-26T17:01:11.741Z,15.97
2023-10-26T17:03:40.678Z,15.58
2023-10-26T17:06:10.710Z,15.49
2023-10-26T17:08:39.197Z,15.53
2023-10-26T17:11:09.782Z,15.56
2023-10-26T17:13:38.226Z,15.26
2023-10-26T17:16:07.908Z,15.27
2023-10-26T17:18:36.577Z,15.59
2023-10-26T17:21:05.155Z,15.70
2023-10-26T17:23:33.679Z,15.68
2023-10-26T17:26:02.225Z,15.77
2023-10-26T17:28:30.618Z,15.73
2023-10-26T17:31:06.654Z,15.72
2023-10-26T17:33:36.199Z,15.75
2023-10-26T17:36:05.143Z,15.89
2023-10-26T17:38:33.746Z,16.00
2023-10-26T17:41:13.138Z,16.12
2023-10-26T17:43:41.607Z,15.86
2023-10-26T17:46:10.155Z,15.77
2023-10-26T17:48:38.911Z,15.90
2023-10-26T17:51:09.624Z,15.83
2023-10-26T17:53:41.582Z,15.93
2023-10-26T17:56:13.480Z,16.00
2023-10-26T17:58:42.762Z,15.93
2023-10-26T18:01:12.085Z,15.90
2023-10-26T18:03:41.057Z,15.76
2023-10-26T18:06:09.499Z,15.80
2023-10-26T18:08:41.286Z,15.91
2023-10-26T18:11:09.808Z,15.98
2023-10-26T18:13:38.324Z,15.97
2023-10-26T18:16:08.533Z,15.78
2023-10-26T18:18:38.860Z,15.64
2023-10-26T18:21:08.862Z,15.80
2023-10-26T18:23:37.600Z,15.74
2023-10-26T18:26:08.348Z,15.68
2023-10-26T18:28:38.697Z,15.65
2023-10-26T18:31:12.263Z,15.61
2023-10-26T18:33:45.547Z,15.39
2023-10-26T18:36:17.078Z,15.52
2023-10-26T18:38:46.366Z,15.63
2023-10-26T18:41:33.046Z,15.82
2023-10-26T18:44:01.905Z,15.65
2023-10-26T18:46:30.583Z,15.68
2023-10-26T18:48:59.337Z,15.75
2023-10-26T18:51:27.903Z,15.35
2023-10-26T18:53:56.773Z,15.48
2023-10-26T18:56:25.333Z,15.41
2023-10-26T18:58:54.248Z,15.50
2023-10-26T19:01:25.389Z,15.59
2023-10-26T19:06:27.042Z,15.75
2023-10-26T19:08:55.565Z,15.72
2023-10-26T19:11:24.083Z,15.55
2023-10-26T19:13:52.735Z,15.51
2023-10-26T19:16:21.579Z,15.50
2023-10-26T19:18:50.178Z,15.63
2023-10-26T19:21:18.729Z,15.68
2023-10-26T19:23:47.277Z,15.62
2023-10-26T19:26:15.771Z,15.69
2023-10-26T19:28:44.265Z,15.68
2023-10-26T19:31:13.341Z,15.61
2023-10-26T19:33:43.495Z,15.43
2023-10-26T19:36:12.360Z,15.19
2023-10-26T19:38:40.782Z,15.07
2023-10-26T19:41:13.644Z,14.92
2023-10-26T19:43:42.092Z,14.67
2023-10-26T19:46:10.960Z,14.99
2023-10-26T19:48:40.468Z,14.85
2023-10-26T19:51:08.952Z,14.96
2023-10-26T19:53:37.472Z,14.90
2023-10-26T19:56:06.226Z,15.10
2023-10-26T19:58:34.698Z,15.04
2023-10-26T20:01:05.755Z,14.78
2023-10-26T20:03:34.248Z,15.05
2023-10-26T20:06:06.823Z,15.21
2023-10-26T20:08:36.931Z,15.31
2023-10-26T20:11:05.675Z,15.41
2023-10-26T20:13:34.189Z,15.60
2023-10-26T20:16:04.032Z,15.50
2023-10-26T20:18:39.881Z,15.51
2023-10-26T20:21:09.287Z,15.40
2023-10-26T20:23:37.741Z,15.44
2023-10-26T20:26:06.212Z,15.13
2023-10-26T20:28:35.531Z,15.21
2023-10-26T20:31:04.762Z,15.24
2023-10-26T20:33:33.323Z,15.44
2023-10-26T20:36:01.857Z,15.31
2023-10-26T20:38:30.383Z,15.04
2023-10-26T20:40:59.196Z,14.97
2023-10-26T20:43:27.800Z,14.89
2023-10-26T20:45:57.945Z,14.95
2023-10-26T20:48:26.935Z,14.89
2023-10-26T20:50:57.241Z,15.15
2023-10-26T20:53:28.940Z,15.32
2023-10-26T20:55:59.090Z,15.36
2023-10-26T20:58:29.021Z,15.30
2023-10-26T21:00:57.735Z,15.03
2023-10-26T21:03:26.544Z,15.04
2023-10-26T21:06:02.808Z,15.09
2023-10-26T21:08:31.653Z,15.01
2023-10-26T21:11:00.718Z,15.25
2023-10-26T21:13:29.985Z,15.28
2023-10-26T21:16:00.648Z,15.33
2023-10-26T21:18:29.133Z,15.21
2023-10-26T21:20:57.595Z,15.06
2023-10-26T21:23:26.197Z,15.09
2023-10-26T21:25:54.668Z,14.89
2023-10-26T21:28:24.830Z,15.21
2023-10-26T21:30:54.744Z,15.19
2023-10-26T21:33:23.323Z,15.10
2023-10-26T21:35:52.506Z,15.09
2023-10-26T21:38:21.012Z,15.15
2023-10-26T21:40:50.748Z,14.91
2023-10-26T21:43:19.305Z,14.70
2023-10-26T21:45:47.855Z,14.91
2023-10-26T21:48:16.502Z,15.14
2023-10-26T21:50:45.000Z,15.26
2023-10-26T21:53:15.919Z,15.30
2023-10-26T21:55:45.948Z,15.34
2023-10-26T21:58:14.411Z,15.27
2023-10-26T22:00:42.864Z,15.35
2023-10-26T22:03:11.469Z,15.54
2023-10-26T22:05:39.963Z,15.50
2023-10-26T22:08:08.407Z,15.05
2023-10-26T22:10:37.091Z,14.98
2023-10-26T22:13:06.231Z,15.05
2023-10-26T22:15:34.758Z,15.10
2023-10-26T22:18:03.430Z,14.85
2023-10-26T22:20:32.067Z,14.95
2023-10-26T22:23:00.994Z,15.09
2023-10-26T22:25:29.535Z,15.32
2023-10-26T22:27:58.651Z,15.37
2023-10-26T22:30:27.892Z,15.36
2023-10-26T22:32:56.444Z,15.45
2023-10-26T22:35:25.041Z,15.54
2023-10-26T22:37:53.706Z,15.10
2023-10-26T22:40:22.324Z,15.32
2023-10-26T22:42:50.842Z,15.43
2023-10-26T22:45:19.704Z,15.45
2023-10-26T22:47:48.248Z,15.52
2023-10-26T22:50:16.804Z,15.20
2023-10-26T22:52:45.284Z,15.19
2023-10-26T22:55:13.836Z,14.97
2023-10-26T22:57:42.948Z,15.20
2023-10-26T23:00:14.535Z,15.24
2023-10-26T23:02:43.051Z,15.37
2023-10-26T23:05:11.539Z,15.23
2023-10-26T23:07:40.002Z,15.54
2023-10-26T23:10:09.066Z,15.63
2023-10-26T23:12:37.590Z,15.50
2023-10-26T23:15:06.632Z,15.32
2023-10-26T23:17:35.177Z,15.54
2023-10-26T23:20:03.936Z,15.31
2023-10-26T23:22:32.840Z,15.38
2023-10-26T23:25:01.295Z,15.38
2023-10-26T23:27:29.785Z,15.39
2023-10-26T23:30:00.881Z,15.08
2023-10-26T23:32:29.709Z,15.11
2023-10-26T23:34:58.304Z,15.20
2023-10-26T23:37:26.884Z,15.35
2023-10-26T23:39:55.509Z,15.44
2023-10-26T23:42:23.994Z,15.50
2023-10-26T23:44:52.626Z,15.42
2023-10-26T23:47:21.054Z,15.44
2023-10-26T23:49:49.668Z,15.18
2023-10-26T23:52:18.182Z,14.98
2023-10-26T23:54:46.903Z,15.31
2023-10-26T23:57:15.435Z,15.48
2023-10-26T23:59:44.032Z,15.57
